sensor_id;sensor_type;location;lat;lon;timestamp;pressure;altitude;pressure_sealevel;temperature;humidity
73974;BME280;62336;-26.094;27.994;2022-10-16T00:02:12;84933.57;;;29.56;18.73
73974;BME280;62336;-26.094;27.994;2022-10-16T00:04:37;84929.50;;;29.74;18.47
73974;BME280;62336;-26.094;27.994;2022-10-16T00:07:03;84930.51;;;29.76;18.64
73974;BME280;62336;-26.094;27.994;2022-10-16T00:09:28;84928.69;;;30.28;18.36
73974;BME280;62336;-26.094;27.994;2022-10-16T00:11:54;84932.18;;;29.38;18.86
73974;BME280;62336;-26.094;27.994;2022-10-16T00:14:19;84927.23;;;29.58;18.73
73974;BME280;62336;-26.094;27.994;2022-10-16T00:16:44;84928.51;;;29.51;18.78
73974;BME280;62336;-26.094;27.994;2022-10-16T00:19:11;84932.27;;;29.25;19.10
73974;BME280;62336;-26.094;27.994;2022-10-16T00:21:36;84935.78;;;29.54;18.82
73974;BME280;62336;-26.094;27.994;2022-10-16T00:24:04;84936.82;;;29.85;18.78
73974;BME280;62336;-26.094;27.994;2022-10-16T00:26:28;84934.25;;;30.16;18.69
73974;BME280;62336;-26.094;27.994;2022-10-16T00:28:53;84931.04;;;29.72;19.05
73974;BME280;62336;-26.094;27.994;2022-10-16T00:31:19;84927.53;;;30.08;18.49
73974;BME280;62336;-26.094;27.994;2022-10-16T00:33:44;84926.19;;;29.98;18.65
73974;BME280;62336;-26.094;27.994;2022-10-16T00:36:13;84923.56;;;30.09;18.92
73974;BME280;62336;-26.094;27.994;2022-10-16T00:38:35;84917.50;;;29.65;19.19
73974;BME280;62336;-26.094;27.994;2022-10-16T00:41:00;84914.35;;;29.58;19.18
73974;BME280;62336;-26.094;27.994;2022-10-16T00:43:37;84912.66;;;29.94;19.08
73974;BME280;62336;-26.094;27.994;2022-10-16T00:45:51;84912.93;;;29.73;19.26
73974;BME280;62336;-26.094;27.994;2022-10-16T00:48:16;84919.77;;;30.08;19.27
73974;BME280;62336;-26.094;27.994;2022-10-16T00:50:41;84917.50;;;30.11;19.32
73974;BME280;62336;-26.094;27.994;2022-10-16T00:53:07;84918.05;;;30.22;19.35
73974;BME280;62336;-26.094;27.994;2022-10-16T00:55:33;84910.72;;;29.86;19.42
73974;BME280;62336;-26.094;27.994;2022-10-16T00:57:59;84911.77;;;29.56;19.63
73974;BME280;62336;-26.094;27.994;2022-10-16T01:00:26;84913.87;;;29.83;19.59
73974;BME280;62336;-26.094;27.994;2022-10-16T01:02:53;84916.84;;;29.54;19.99
73974;BME280;62336;-26.094;27.994;2022-10-16T01:05:21;84916.56;;;29.39;20.28
73974;BME280;62336;-26.094;27.994;2022-10-16T01:07:47;84913.23;;;29.48;20.07
73974;BME280;62336;-26.094;27.994;2022-10-16T01:10:13;84909.29;;;29.45;20.03
73974;BME280;62336;-26.094;27.994;2022-10-16T01:12:39;84912.15;;;29.50;20.03
73974;BME280;62336;-26.094;27.994;2022-10-16T01:14:59;84912.48;;;29.41;20.27
73974;BME280;62336;-26.094;27.994;2022-10-16T01:17:25;84917.02;;;29.89;20.19
73974;BME280;62336;-26.094;27.994;2022-10-16T01:20:03;84914.57;;;29.39;20.29
73974;BME280;62336;-26.094;27.994;2022-10-16T01:22:13;84917.64;;;29.71;20.11
73974;BME280;62336;-26.094;27.994;2022-10-16T01:24:40;84917.14;;;29.77;20.11
73974;BME280;62336;-26.094;27.994;2022-10-16T01:27:07;84918.10;;;29.47;20.15
73974;BME280;62336;-26.094;27.994;2022-10-16T01:29:32;84928.61;;;29.29;20.31
73974;BME280;62336;-26.094;27.994;2022-10-16T01:31:57;84931.29;;;29.63;20.34
73974;BME280;62336;-26.094;27.994;2022-10-16T01:34:22;84932.77;;;29.77;20.31
73974;BME280;62336;-26.094;27.994;2022-10-16T01:36:49;84938.06;;;29.65;20.46
73974;BME280;62336;-26.094;27.994;2022-10-16T01:39:11;84937.39;;;28.96;21.06
73974;BME280;62336;-26.094;27.994;2022-10-16T01:41:40;84939.83;;;28.94;21.15
73974;BME280;62336;-26.094;27.994;2022-10-16T01:44:05;84939.52;;;29.02;20.85
73974;BME280;62336;-26.094;27.994;2022-10-16T01:46:27;84935.45;;;29.40;20.81
73974;BME280;62336;-26.094;27.994;2022-10-16T01:48:52;84940.09;;;29.64;20.76
73974;BME280;62336;-26.094;27.994;2022-10-16T01:51:18;84941.24;;;29.09;21.28
73974;BME280;62336;-26.094;27.994;2022-10-16T01:53:45;84940.21;;;29.05;21.04
73974;BME280;62336;-26.094;27.994;2022-10-16T01:56:10;84940.67;;;28.85;21.20
73974;BME280;62336;-26.094;27.994;2022-10-16T01:58:36;84942.33;;;29.31;21.08
73974;BME280;62336;-26.094;27.994;2022-10-16T02:00:59;84947.52;;;28.87;21.35
73974;BME280;62336;-26.094;27.994;2022-10-16T02:03:24;84951.86;;;28.60;21.53
73974;BME280;62336;-26.094;27.994;2022-10-16T02:05:52;84951.39;;;28.55;21.67
73974;BME280;62336;-26.094;27.994;2022-10-16T02:08:15;84946.83;;;29.04;21.63
73974;BME280;62336;-26.094;27.994;2022-10-16T02:10:41;84949.68;;;28.79;21.45
73974;BME280;62336;-26.094;27.994;2022-10-16T03:07:58;84985.15;;;16.20;49.35
73974;BME280;62336;-26.094;27.994;2022-10-16T03:10:23;84980.41;;;19.47;40.35
73974;BME280;62336;-26.094;27.994;2022-10-16T03:12:59;84987.84;;;21.77;35.71
73974;BME280;62336;-26.094;27.994;2022-10-16T03:15:20;84986.78;;;23.60;31.82
73974;BME280;62336;-26.094;27.994;2022-10-16T03:17:40;84987.25;;;24.43;29.34
73974;BME280;62336;-26.094;27.994;2022-10-16T03:20:05;84986.75;;;25.66;27.87
73974;BME280;62336;-26.094;27.994;2022-10-16T03:22:30;84983.47;;;26.50;26.28
73974;BME280;62336;-26.094;27.994;2022-10-16T03:24:56;84983.99;;;26.58;25.52
73974;BME280;62336;-26.094;27.994;2022-10-16T03:27:21;84987.91;;;27.55;24.60
73974;BME280;62336;-26.094;27.994;2022-10-16T03:29:46;84995.02;;;28.11;23.82
73974;BME280;62336;-26.094;27.994;2022-10-16T03:32:11;85000.59;;;28.04;23.77
73974;BME280;62336;-26.094;27.994;2022-10-16T03:34:36;85007.93;;;27.95;23.60
73974;BME280;62336;-26.094;27.994;2022-10-16T03:37:02;85008.65;;;28.07;23.43
73974;BME280;62336;-26.094;27.994;2022-10-16T03:39:28;85010.50;;;28.53;22.98
73974;BME280;62336;-26.094;27.994;2022-10-16T03:41:53;85009.57;;;29.37;22.14
73974;BME280;62336;-26.094;27.994;2022-10-16T03:44:19;85005.74;;;28.71;22.02
73974;BME280;62336;-26.094;27.994;2022-10-16T03:46:43;85007.69;;;28.85;22.14
73974;BME280;62336;-26.094;27.994;2022-10-16T03:49:09;85004.17;;;29.14;21.95
73974;BME280;62336;-26.094;27.994;2022-10-16T03:51:33;85011.47;;;28.91;21.96
73974;BME280;62336;-26.094;27.994;2022-10-16T03:54:00;85010.97;;;29.30;21.60
73974;BME280;62336;-26.094;27.994;2022-10-16T03:56:24;85012.88;;;29.60;21.48
73974;BME280;62336;-26.094;27.994;2022-10-16T03:58:50;85017.39;;;29.19;21.51
73974;BME280;62336;-26.094;27.994;2022-10-16T04:01:16;85020.16;;;29.00;21.75
73974;BME280;62336;-26.094;27.994;2022-10-16T04:03:41;85019.73;;;28.84;21.91
73974;BME280;62336;-26.094;27.994;2022-10-16T04:06:06;85024.02;;;28.96;21.82
73974;BME280;62336;-26.094;27.994;2022-10-16T04:08:32;85024.75;;;29.13;21.66
73974;BME280;62336;-26.094;27.994;2022-10-16T04:11:27;85029.25;;;29.72;20.73
73974;BME280;62336;-26.094;27.994;2022-10-16T04:13:52;85029.57;;;29.57;20.86
73974;BME280;62336;-26.094;27.994;2022-10-16T04:16:18;85032.40;;;29.41;21.21
73974;BME280;62336;-26.094;27.994;2022-10-16T04:18:43;85039.06;;;29.31;21.36
73974;BME280;62336;-26.094;27.994;2022-10-16T04:21:10;85046.21;;;29.18;21.61
73974;BME280;62336;-26.094;27.994;2022-10-16T04:23:35;85045.00;;;28.89;21.88
73974;BME280;62336;-26.094;27.994;2022-10-16T04:26:00;85040.71;;;28.73;22.05
73974;BME280;62336;-26.094;27.994;2022-10-16T04:28:25;85043.67;;;28.87;21.88
73974;BME280;62336;-26.094;27.994;2022-10-16T04:30:51;85054.59;;;28.94;22.30
73974;BME280;62336;-26.094;27.994;2022-10-16T04:33:16;85057.76;;;28.58;21.96
73974;BME280;62336;-26.094;27.994;2022-10-16T04:35:42;85057.59;;;28.56;22.09
73974;BME280;62336;-26.094;27.994;2022-10-16T04:38:07;85057.19;;;29.10;21.62
73974;BME280;62336;-26.094;27.994;2022-10-16T04:40:32;85057.82;;;28.81;21.97
73974;BME280;62336;-26.094;27.994;2022-10-16T04:42:57;85063.33;;;29.21;21.57
73974;BME280;62336;-26.094;27.994;2022-10-16T04:45:23;85068.04;;;28.74;21.87
73974;BME280;62336;-26.094;27.994;2022-10-16T04:47:48;85071.01;;;29.22;21.45
73974;BME280;62336;-26.094;27.994;2022-10-16T04:50:14;85068.83;;;28.94;21.63
73974;BME280;62336;-26.094;27.994;2022-10-16T04:52:40;85068.24;;;28.88;21.72
73974;BME280;62336;-26.094;27.994;2022-10-16T04:55:06;85070.14;;;29.50;21.28
73974;BME280;62336;-26.094;27.994;2022-10-16T04:57:31;85070.18;;;28.95;21.64
73974;BME280;62336;-26.094;27.994;2022-10-16T04:59:56;85069.50;;;28.81;21.80
73974;BME280;62336;-26.094;27.994;2022-10-16T05:02:21;85081.27;;;29.01;21.62
73974;BME280;62336;-26.094;27.994;2022-10-16T05:04:47;85074.85;;;29.24;21.70
73974;BME280;62336;-26.094;27.994;2022-10-16T05:07:12;85079.25;;;29.25;21.53
73974;BME280;62336;-26.094;27.994;2022-10-16T05:09:38;85079.14;;;29.85;21.21
73974;BME280;62336;-26.094;27.994;2022-10-16T05:12:04;85076.14;;;29.48;21.20
73974;BME280;62336;-26.094;27.994;2022-10-16T05:14:29;85081.04;;;29.70;21.23
73974;BME280;62336;-26.094;27.994;2022-10-16T05:16:54;85085.68;;;29.85;21.05
73974;BME280;62336;-26.094;27.994;2022-10-16T05:19:20;85086.16;;;30.05;20.96
73974;BME280;62336;-26.094;27.994;2022-10-16T05:21:45;85093.68;;;30.17;20.81
73974;BME280;62336;-26.094;27.994;2022-10-16T05:24:11;85090.05;;;30.20;20.90
73974;BME280;62336;-26.094;27.994;2022-10-16T05:26:36;85090.06;;;30.23;20.75
73974;BME280;62336;-26.094;27.994;2022-10-16T05:29:01;85093.60;;;30.30;20.74
73974;BME280;62336;-26.094;27.994;2022-10-16T05:31:27;85096.36;;;30.07;20.94
73974;BME280;62336;-26.094;27.994;2022-10-16T05:33:57;85100.99;;;29.86;20.81
73974;BME280;62336;-26.094;27.994;2022-10-16T05:36:18;85101.43;;;30.17;20.38
73974;BME280;62336;-26.094;27.994;2022-10-16T05:38:43;85103.93;;;30.24;20.15
73974;BME280;62336;-26.094;27.994;2022-10-16T05:41:09;85103.05;;;30.75;19.97
73974;BME280;62336;-26.094;27.994;2022-10-16T05:43:34;85102.78;;;30.57;19.84
73974;BME280;62336;-26.094;27.994;2022-10-16T05:46:02;85101.34;;;30.43;20.10
73974;BME280;62336;-26.094;27.994;2022-10-16T05:48:27;85103.46;;;30.39;20.04
73974;BME280;62336;-26.094;27.994;2022-10-16T05:50:56;85107.30;;;30.50;19.95
73974;BME280;62336;-26.094;27.994;2022-10-16T05:53:17;85108.71;;;30.51;20.34
73974;BME280;62336;-26.094;27.994;2022-10-16T05:55:43;85109.40;;;30.60;19.93
73974;BME280;62336;-26.094;27.994;2022-10-16T05:58:08;85112.29;;;30.60;20.11
73974;BME280;62336;-26.094;27.994;2022-10-16T06:00:34;85117.11;;;30.41;20.26
73974;BME280;62336;-26.094;27.994;2022-10-16T06:02:59;85117.34;;;30.52;19.93
73974;BME280;62336;-26.094;27.994;2022-10-16T06:05:24;85113.78;;;30.70;19.98
73974;BME280;62336;-26.094;27.994;2022-10-16T06:07:50;85117.00;;;30.78;19.95
73974;BME280;62336;-26.094;27.994;2022-10-16T06:10:16;85118.46;;;30.83;19.88
73974;BME280;62336;-26.094;27.994;2022-10-16T06:12:41;85113.95;;;30.86;19.57
73974;BME280;62336;-26.094;27.994;2022-10-16T06:15:06;85109.64;;;31.63;19.37
73974;BME280;62336;-26.094;27.994;2022-10-16T06:17:32;85115.15;;;31.28;19.00
73974;BME280;62336;-26.094;27.994;2022-10-16T06:19:57;85109.57;;;31.50;18.79
73974;BME280;62336;-26.094;27.994;2022-10-16T06:22:22;85108.51;;;31.09;19.03
73974;BME280;62336;-26.094;27.994;2022-10-16T06:24:48;85111.80;;;30.80;19.35
73974;BME280;62336;-26.094;27.994;2022-10-16T06:27:13;85118.68;;;30.98;19.11
73974;BME280;62336;-26.094;27.994;2022-10-16T06:29:38;85117.85;;;31.09;18.78
73974;BME280;62336;-26.094;27.994;2022-10-16T06:32:03;85120.98;;;31.34;18.44
73974;BME280;62336;-26.094;27.994;2022-10-16T06:34:29;85114.63;;;31.52;18.35
73974;BME280;62336;-26.094;27.994;2022-10-16T06:36:54;85113.64;;;32.02;18.62
73974;BME280;62336;-26.094;27.994;2022-10-16T06:39:19;85112.08;;;31.69;18.51
73974;BME280;62336;-26.094;27.994;2022-10-16T06:41:44;85112.24;;;31.72;18.21
73974;BME280;62336;-26.094;27.994;2022-10-16T06:44:10;85112.14;;;31.46;18.37
73974;BME280;62336;-26.094;27.994;2022-10-16T06:46:35;85110.86;;;31.55;18.25
73974;BME280;62336;-26.094;27.994;2022-10-16T06:49:01;85110.49;;;31.34;18.47
73974;BME280;62336;-26.094;27.994;2022-10-16T06:51:27;85107.67;;;31.70;18.43
73974;BME280;62336;-26.094;27.994;2022-10-16T06:53:54;85110.88;;;31.67;18.46
73974;BME280;62336;-26.094;27.994;2022-10-16T06:56:20;85115.94;;;31.77;18.16
73974;BME280;62336;-26.094;27.994;2022-10-16T06:58:44;85113.76;;;30.99;18.56
73974;BME280;62336;-26.094;27.994;2022-10-16T07:01:10;85109.15;;;31.44;17.95
73974;BME280;62336;-26.094;27.994;2022-10-16T07:03:36;85106.58;;;31.34;18.24
73974;BME280;62336;-26.094;27.994;2022-10-16T07:06:03;85105.69;;;31.78;18.19
73974;BME280;62336;-26.094;27.994;2022-10-16T07:08:25;85109.98;;;32.01;17.72
73974;BME280;62336;-26.094;27.994;2022-10-16T07:13:15;85106.07;;;32.33;17.60
73974;BME280;62336;-26.094;27.994;2022-10-16T07:15:41;85105.49;;;32.24;17.36
73974;BME280;62336;-26.094;27.994;2022-10-16T07:18:06;85106.76;;;32.48;17.36
73974;BME280;62336;-26.094;27.994;2022-10-16T07:20:31;85109.72;;;32.50;17.38
73974;BME280;62336;-26.094;27.994;2022-10-16T07:22:56;85113.59;;;32.53;17.12
73974;BME280;62336;-26.094;27.994;2022-10-16T07:25:21;85115.77;;;32.34;17.28
73974;BME280;62336;-26.094;27.994;2022-10-16T07:27:47;85110.67;;;32.39;17.23
73974;BME280;62336;-26.094;27.994;2022-10-16T07:30:13;85112.90;;;32.45;17.06
73974;BME280;62336;-26.094;27.994;2022-10-16T07:32:38;85112.34;;;31.68;17.44
73974;BME280;62336;-26.094;27.994;2022-10-16T07:35:04;85113.68;;;31.74;17.35
73974;BME280;62336;-26.094;27.994;2022-10-16T07:37:29;85113.96;;;32.15;17.52
73974;BME280;62336;-26.094;27.994;2022-10-16T07:39:54;85114.15;;;32.68;17.31
73974;BME280;62336;-26.094;27.994;2022-10-16T07:42:20;85115.40;;;32.28;17.33
73974;BME280;62336;-26.094;27.994;2022-10-16T07:44:45;85112.58;;;32.52;17.11
73974;BME280;62336;-26.094;27.994;2022-10-16T07:47:12;85110.94;;;32.62;17.05
73974;BME280;62336;-26.094;27.994;2022-10-16T07:49:36;85114.57;;;32.70;16.82
73974;BME280;62336;-26.094;27.994;2022-10-16T07:52:01;85111.90;;;32.94;16.86
73974;BME280;62336;-26.094;27.994;2022-10-16T07:54:27;85111.92;;;32.36;16.47
73974;BME280;62336;-26.094;27.994;2022-10-16T07:56:53;85104.89;;;32.59;16.57
73974;BME280;62336;-26.094;27.994;2022-10-16T07:59:18;85101.97;;;33.01;16.41
73974;BME280;62336;-26.094;27.994;2022-10-16T08:01:43;85097.43;;;32.83;16.67
73974;BME280;62336;-26.094;27.994;2022-10-16T08:04:10;85095.56;;;33.04;16.54
73974;BME280;62336;-26.094;27.994;2022-10-16T08:06:37;85091.59;;;32.37;16.93
73974;BME280;62336;-26.094;27.994;2022-10-16T08:09:00;85088.11;;;32.03;17.00
73974;BME280;62336;-26.094;27.994;2022-10-16T08:11:25;85092.66;;;32.40;17.00
73974;BME280;62336;-26.094;27.994;2022-10-16T08:13:51;85088.58;;;32.32;17.20
73974;BME280;62336;-26.094;27.994;2022-10-16T08:16:16;85091.05;;;32.22;16.76
73974;BME280;62336;-26.094;27.994;2022-10-16T08:18:42;85081.36;;;31.75;17.29
73974;BME280;62336;-26.094;27.994;2022-10-16T08:21:13;85078.35;;;32.32;16.70
73974;BME280;62336;-26.094;27.994;2022-10-16T08:23:34;85081.15;;;31.87;17.03
73974;BME280;62336;-26.094;27.994;2022-10-16T08:26:05;85076.52;;;32.60;16.45
73974;BME280;62336;-26.094;27.994;2022-10-16T08:28:25;85072.57;;;32.67;16.25
73974;BME280;62336;-26.094;27.994;2022-10-16T08:30:50;85065.27;;;32.23;16.62
73974;BME280;62336;-26.094;27.994;2022-10-16T08:33:16;85060.22;;;31.96;16.89
73974;BME280;62336;-26.094;27.994;2022-10-16T08:35:41;85069.43;;;32.22;16.63
73974;BME280;62336;-26.094;27.994;2022-10-16T08:38:06;85057.54;;;32.01;16.64
73974;BME280;62336;-26.094;27.994;2022-10-16T08:40:33;85051.47;;;31.05;17.39
73974;BME280;62336;-26.094;27.994;2022-10-16T08:43:09;85055.09;;;32.41;16.73
73974;BME280;62336;-26.094;27.994;2022-10-16T08:45:31;85047.99;;;31.43;17.19
73974;BME280;62336;-26.094;27.994;2022-10-16T08:47:51;85046.60;;;32.06;16.86
73974;BME280;62336;-26.094;27.994;2022-10-16T08:50:14;85052.13;;;32.45;16.85
73974;BME280;62336;-26.094;27.994;2022-10-16T08:52:40;85060.40;;;32.23;17.02
73974;BME280;62336;-26.094;27.994;2022-10-16T08:55:04;85045.88;;;32.02;16.95
73974;BME280;62336;-26.094;27.994;2022-10-16T08:57:28;85046.93;;;32.05;17.02
73974;BME280;62336;-26.094;27.994;2022-10-16T08:59:54;85048.85;;;32.43;16.39
73974;BME280;62336;-26.094;27.994;2022-10-16T09:02:26;85044.65;;;33.34;15.79
73974;BME280;62336;-26.094;27.994;2022-10-16T09:04:54;85043.67;;;33.15;15.51
73974;BME280;62336;-26.094;27.994;2022-10-16T09:07:14;85040.58;;;32.83;15.86
73974;BME280;62336;-26.094;27.994;2022-10-16T09:09:48;85045.73;;;32.57;15.79
73974;BME280;62336;-26.094;27.994;2022-10-16T09:12:08;85047.58;;;32.99;15.87
73974;BME280;62336;-26.094;27.994;2022-10-16T09:14:42;85047.27;;;33.25;15.30
73974;BME280;62336;-26.094;27.994;2022-10-16T09:16:57;85051.25;;;33.45;15.11
73974;BME280;62336;-26.094;27.994;2022-10-16T09:19:23;85054.53;;;33.72;14.45
73974;BME280;62336;-26.094;27.994;2022-10-16T09:21:45;85045.25;;;32.87;15.13
73974;BME280;62336;-26.094;27.994;2022-10-16T09:24:13;85055.13;;;33.86;14.75
73974;BME280;62336;-26.094;27.994;2022-10-16T09:26:34;85045.30;;;32.94;14.95
73974;BME280;62336;-26.094;27.994;2022-10-16T09:28:59;85036.84;;;33.66;14.71
73974;BME280;62336;-26.094;27.994;2022-10-16T09:31:25;85026.48;;;33.38;15.43
73974;BME280;62336;-26.094;27.994;2022-10-16T09:33:54;85023.66;;;33.26;15.18
73974;BME280;62336;-26.094;27.994;2022-10-16T09:36:15;85022.17;;;33.83;14.38
73974;BME280;62336;-26.094;27.994;2022-10-16T09:38:40;85019.01;;;33.72;14.91
73974;BME280;62336;-26.094;27.994;2022-10-16T09:41:14;85012.19;;;33.40;14.87
73974;BME280;62336;-26.094;27.994;2022-10-16T09:43:36;85007.06;;;34.17;14.61
73974;BME280;62336;-26.094;27.994;2022-10-16T09:45:58;85005.35;;;34.42;14.13
73974;BME280;62336;-26.094;27.994;2022-10-16T09:48:21;85004.55;;;34.26;14.41
73974;BME280;62336;-26.094;27.994;2022-10-16T09:50:56;85005.73;;;34.28;14.45
73974;BME280;62336;-26.094;27.994;2022-10-16T09:53:14;85016.21;;;34.52;14.15
73974;BME280;62336;-26.094;27.994;2022-10-16T09:55:48;85012.34;;;34.47;14.26
73974;BME280;62336;-26.094;27.994;2022-10-16T09:58:03;85010.09;;;34.29;14.16
73974;BME280;62336;-26.094;27.994;2022-10-16T10:00:28;85006.43;;;34.71;14.07
73974;BME280;62336;-26.094;27.994;2022-10-16T10:05:30;85007.41;;;32.83;16.15
73974;BME280;62336;-26.094;27.994;2022-10-16T10:07:58;85000.48;;;32.82;15.69
73974;BME280;62336;-26.094;27.994;2022-10-16T10:10:23;84997.98;;;33.28;15.41
73974;BME280;62336;-26.094;27.994;2022-10-16T10:12:46;84997.66;;;33.77;14.38
73974;BME280;62336;-26.094;27.994;2022-10-16T10:15:13;84986.09;;;33.29;14.78
73974;BME280;62336;-26.094;27.994;2022-10-16T10:17:45;84986.55;;;34.50;13.77
73974;BME280;62336;-26.094;27.994;2022-10-16T10:20:15;84976.65;;;34.14;14.28
73974;BME280;62336;-26.094;27.994;2022-10-16T10:22:31;84971.58;;;34.49;13.92
73974;BME280;62336;-26.094;27.994;2022-10-16T10:25:00;84980.36;;;35.09;13.55
73974;BME280;62336;-26.094;27.994;2022-10-16T10:27:19;84972.54;;;34.45;13.84
73974;BME280;62336;-26.094;27.994;2022-10-16T10:29:52;84970.22;;;34.92;13.44
73974;BME280;62336;-26.094;27.994;2022-10-16T10:32:19;84970.83;;;35.18;13.25
73974;BME280;62336;-26.094;27.994;2022-10-16T10:34:45;84964.32;;;35.44;13.44
73974;BME280;62336;-26.094;27.994;2022-10-16T10:37:04;84962.16;;;34.72;13.72
73974;BME280;62336;-26.094;27.994;2022-10-16T10:39:30;84973.11;;;34.93;13.35
73974;BME280;62336;-26.094;27.994;2022-10-16T10:42:06;84962.59;;;34.85;13.41
73974;BME280;62336;-26.094;27.994;2022-10-16T10:44:21;84953.72;;;35.38;12.97
73974;BME280;62336;-26.094;27.994;2022-10-16T10:46:47;84950.99;;;35.35;13.04
73974;BME280;62336;-26.094;27.994;2022-10-16T10:49:19;84947.44;;;35.89;13.02
73974;BME280;62336;-26.094;27.994;2022-10-16T10:51:38;84947.60;;;35.51;13.02
73974;BME280;62336;-26.094;27.994;2022-10-16T12:33:05;84892.80;;;27.93;22.49
73974;BME280;62336;-26.094;27.994;2022-10-16T12:35:32;84890.44;;;30.52;19.66
73974;BME280;62336;-26.094;27.994;2022-10-16T12:38:03;84895.63;;;32.14;16.65
73974;BME280;62336;-26.094;27.994;2022-10-16T12:40:28;84904.42;;;33.28;15.71
73974;BME280;62336;-26.094;27.994;2022-10-16T12:42:45;84897.27;;;34.46;14.30
73974;BME280;62336;-26.094;27.994;2022-10-16T12:45:28;84891.04;;;34.95;13.70
73974;BME280;62336;-26.094;27.994;2022-10-16T12:47:47;84902.27;;;35.34;13.12
73974;BME280;62336;-26.094;27.994;2022-10-16T12:50:21;84895.62;;;35.98;12.56
73974;BME280;62336;-26.094;27.994;2022-10-16T12:52:34;84883.35;;;35.98;12.81
73974;BME280;62336;-26.094;27.994;2022-10-16T12:54:56;84875.89;;;36.62;12.24
73974;BME280;62336;-26.094;27.994;2022-10-16T12:57:29;84867.21;;;36.87;12.23
73974;BME280;62336;-26.094;27.994;2022-10-16T12:59:50;84868.88;;;37.23;12.18
73974;BME280;62336;-26.094;27.994;2022-10-16T13:02:20;84867.21;;;37.64;11.48
73974;BME280;62336;-26.094;27.994;2022-10-16T13:04:45;84866.20;;;37.57;11.49
73974;BME280;62336;-26.094;27.994;2022-10-16T13:07:10;84866.97;;;37.55;11.51
73974;BME280;62336;-26.094;27.994;2022-10-16T13:09:33;84864.63;;;37.53;11.59
73974;BME280;62336;-26.094;27.994;2022-10-16T13:11:59;84875.31;;;37.64;11.45
73974;BME280;62336;-26.094;27.994;2022-10-16T13:14:31;84869.55;;;36.96;12.03
73974;BME280;62336;-26.094;27.994;2022-10-16T13:16:49;84878.91;;;37.35;11.98
73974;BME280;62336;-26.094;27.994;2022-10-16T13:19:15;84882.27;;;37.28;11.97
73974;BME280;62336;-26.094;27.994;2022-10-16T13:21:38;84880.23;;;37.55;11.91
73974;BME280;62336;-26.094;27.994;2022-10-16T13:24:02;84874.26;;;37.47;11.93
73974;BME280;62336;-26.094;27.994;2022-10-16T13:26:31;84864.35;;;37.63;12.12
73974;BME280;62336;-26.094;27.994;2022-10-16T13:28:48;84860.12;;;37.58;11.46
73974;BME280;62336;-26.094;27.994;2022-10-16T13:31:17;84855.02;;;38.05;10.91
73974;BME280;62336;-26.094;27.994;2022-10-16T13:33:41;84856.41;;;38.21;10.80
73974;BME280;62336;-26.094;27.994;2022-10-16T13:36:05;84857.36;;;38.27;11.09
73974;BME280;62336;-26.094;27.994;2022-10-16T13:38:32;84862.64;;;38.07;11.06
73974;BME280;62336;-26.094;27.994;2022-10-16T13:40:57;84862.55;;;37.61;11.16
73974;BME280;62336;-26.094;27.994;2022-10-16T13:43:24;84862.91;;;37.70;11.45
73974;BME280;62336;-26.094;27.994;2022-10-16T13:45:54;84865.76;;;38.29;11.27
73974;BME280;62336;-26.094;27.994;2022-10-16T13:48:12;84865.83;;;38.16;11.24
73974;BME280;62336;-26.094;27.994;2022-10-16T13:50:37;84864.36;;;38.02;11.19
73974;BME280;62336;-26.094;27.994;2022-10-16T13:53:07;84858.31;;;38.28;11.00
73974;BME280;62336;-26.094;27.994;2022-10-16T13:55:29;84861.35;;;38.00;10.91
73974;BME280;62336;-26.094;27.994;2022-10-16T13:57:53;84860.94;;;38.22;10.86
73974;BME280;62336;-26.094;27.994;2022-10-16T14:00:21;84858.70;;;37.49;11.57
73974;BME280;62336;-26.094;27.994;2022-10-16T14:02:45;84861.68;;;37.02;11.96
73974;BME280;62336;-26.094;27.994;2022-10-16T14:05:10;84860.99;;;37.31;11.81
73974;BME280;62336;-26.094;27.994;2022-10-16T14:07:36;84864.97;;;37.74;11.41
73974;BME280;62336;-26.094;27.994;2022-10-16T14:10:05;84869.82;;;37.73;11.56
73974;BME280;62336;-26.094;27.994;2022-10-16T14:12:27;84870.03;;;37.51;11.63
73974;BME280;62336;-26.094;27.994;2022-10-16T14:14:54;84876.19;;;37.33;11.86
73974;BME280;62336;-26.094;27.994;2022-10-16T14:17:20;84883.86;;;37.21;11.81
73974;BME280;62336;-26.094;27.994;2022-10-16T14:19:47;84887.24;;;38.01;11.35
73974;BME280;62336;-26.094;27.994;2022-10-16T14:24:35;84892.46;;;36.82;11.67
73974;BME280;62336;-26.094;27.994;2022-10-16T14:27:00;84892.72;;;37.22;11.49
73974;BME280;62336;-26.094;27.994;2022-10-16T14:29:27;84892.26;;;37.47;11.75
73974;BME280;62336;-26.094;27.994;2022-10-16T14:31:56;84889.55;;;37.51;11.43
73974;BME280;62336;-26.094;27.994;2022-10-16T14:34:23;84889.05;;;37.74;11.68
73974;BME280;62336;-26.094;27.994;2022-10-16T14:36:41;84891.81;;;36.97;11.95
73974;BME280;62336;-26.094;27.994;2022-10-16T14:39:14;84896.24;;;37.22;11.81
73974;BME280;62336;-26.094;27.994;2022-10-16T14:41:33;84896.60;;;37.62;
73974;BME280;62336;-26.094;27.994;2022-10-16T14:43:58;84899.36;;;36.88;11.96
73974;BME280;62336;-26.094;27.994;2022-10-16T14:46:28;84900.02;;;37.10;12.01
73974;BME280;62336;-26.094;27.994;2022-10-16T14:48:50;84902.05;;;37.12;12.08
73974;BME280;62336;-26.094;27.994;2022-10-16T14:51:14;84906.77;;;36.62;12.37
73974;BME280;62336;-26.094;27.994;2022-10-16T14:53:38;84912.15;;;36.54;12.42
73974;BME280;62336;-26.094;27.994;2022-10-16T14:56:07;84910.79;;;36.81;12.26
73974;BME280;62336;-26.094;27.994;2022-10-16T14:58:29;84910.12;;;36.86;12.16
73974;BME280;62336;-26.094;27.994;2022-10-16T15:00:56;84911.54;;;36.73;12.24
73974;BME280;62336;-26.094;27.994;2022-10-16T15:03:20;84913.14;;;36.84;12.22
73974;BME280;62336;-26.094;27.994;2022-10-16T15:05:45;84917.57;;;36.75;11.87
73974;BME280;62336;-26.094;27.994;2022-10-16T15:08:10;84920.07;;;36.42;11.96
73974;BME280;62336;-26.094;27.994;2022-10-16T15:10:39;84924.34;;;36.33;12.25
73974;BME280;62336;-26.094;27.994;2022-10-16T15:13:01;84927.73;;;36.00;11.93